sensor_id;sensor_type;location;lat;lon;timestamp;P1;durP1;ratioP1;P2;durP2;ratioP2
1258;SDS011;619;51.472;6.628;2023-05-09T00:00:46;12.40;;;11.20;;
1258;SDS011;619;51.472;6.628;2023-05-09T00:03:12;13.87;;;12.53;;
1258;SDS011;619;51.472;6.628;2023-05-09T00:05:38;12.13;;;11.13;;
1258;SDS011;619;51.472;6.628;2023-05-09T00:08:06;12.57;;;11.60;;
1258;SDS011;619;51.472;6.628;2023-05-09T00:10:32;11.87;;;10.87;;
1258;SDS011;619;51.472;6.628;2023-05-09T00:13:02;13.87;;;12.77;;
1258;SDS011;619;51.472;6.628;2023-05-09T00:15:27;14.13;;;12.63;;
1258;SDS011;619;51.472;6.628;2023-05-09T00:17:56;16.23;;;11.90;;
1258;SDS011;619;51.472;6.628;2023-05-09T00:20:22;12.83;;;11.73;;
1258;SDS011;619;51.472;6.628;2023-05-09T00:22:50;13.67;;;12.33;;
1258;SDS011;619;51.472;6.628;2023-05-09T00:25:16;14.27;;;12.80;;
1258;SDS011;619;51.472;6.628;2023-05-09T00:27:41;14.63;;;13.40;;
1258;SDS011;619;51.472;6.628;2023-05-09T00:30:09;15.33;;;14.13;;
1258;SDS011;619;51.472;6.628;2023-05-09T00:32:35;16.57;;;14.83;;
1258;SDS011;619;51.472;6.628;2023-05-09T00:35:03;15.13;;;13.73;;
1258;SDS011;619;51.472;6.628;2023-05-09T00:37:29;14.23;;;13.03;;
1258;SDS011;619;51.472;6.628;2023-05-09T00:39:55;15.97;;;14.27;;
1258;SDS011;619;51.472;6.628;2023-05-09T00:42:21;16.03;;;14.73;;
1258;SDS011;619;51.472;6.628;2023-05-09T00:44:46;16.03;;;14.33;;
1258;SDS011;619;51.472;6.628;2023-05-09T00:47:12;15.23;;;14.03;;
1258;SDS011;619;51.472;6.628;2023-05-09T00:49:40;13.73;;;12.43;;
1258;SDS011;619;51.472;6.628;2023-05-09T00:52:05;14.30;;;13.10;;
1258;SDS011;619;51.472;6.628;2023-05-09T00:54:34;14.00;;;12.80;;
1258;SDS011;619;51.472;6.628;2023-05-09T00:57:03;15.70;;;14.40;;
1258;SDS011;619;51.472;6.628;2023-05-09T00:59:28;16.57;;;15.17;;
1258;SDS011;619;51.472;6.628;2023-05-09T01:01:56;14.70;;;13.50;;
1258;SDS011;619;51.472;6.628;2023-05-09T01:04:22;16.37;;;15.03;;
1258;SDS011;619;51.472;6.628;2023-05-09T01:09:21;16.50;;;14.87;;
1258;SDS011;619;51.472;6.628;2023-05-09T01:11:55;16.37;;;14.97;;
1258;SDS011;619;51.472;6.628;2023-05-09T01:17:42;17.27;;;15.73;;
1258;SDS011;619;51.472;6.628;2023-05-09T01:20:22;17.63;;;16.13;;
1258;SDS011;619;51.472;6.628;2023-05-09T01:23:09;16.50;;;14.90;;
1258;SDS011;619;51.472;6.628;2023-05-09T01:28:22;16.00;;;14.50;;
1258;SDS011;619;51.472;6.628;2023-05-09T01:30:56;17.20;;;15.80;;
1258;SDS011;619;51.472;6.628;2023-05-09T01:33:25;19.23;;;16.60;;
1258;SDS011;619;51.472;6.628;2023-05-09T01:36:00;17.03;;;15.40;;
1258;SDS011;619;51.472;6.628;2023-05-09T01:38:33;16.30;;;15.00;;
1258;SDS011;619;51.472;6.628;2023-05-09T01:41:00;18.00;;;16.50;;
1258;SDS011;619;51.472;6.628;2023-05-09T01:43:29;17.03;;;15.43;;
1258;SDS011;619;51.472;6.628;2023-05-09T01:45:57;16.27;;;14.97;;
1258;SDS011;619;51.472;6.628;2023-05-09T01:48:28;16.37;;;15.07;;
1258;SDS011;619;51.472;6.628;2023-05-09T01:50:59;18.80;;;17.00;;
1258;SDS011;619;51.472;6.628;2023-05-09T01:53:31;17.07;;;15.67;;
1258;SDS011;619;51.472;6.628;2023-05-09T01:55:59;17.00;;;15.50;;
1258;SDS011;619;51.472;6.628;2023-05-09T01:58:31;16.80;;;15.27;;
1258;SDS011;619;51.472;6.628;2023-05-09T02:00:58;17.17;;;15.53;;
1258;SDS011;619;51.472;6.628;2023-05-09T02:03:24;16.90;;;15.50;;
1258;SDS011;619;51.472;6.628;2023-05-09T02:05:51;18.80;;;16.90;;
1258;SDS011;619;51.472;6.628;2023-05-09T02:08:19;18.63;;;16.93;;
1258;SDS011;619;51.472;6.628;2023-05-09T02:10:50;16.83;;;15.30;;
1258;SDS011;619;51.472;6.628;2023-05-09T02:13:19;18.40;;;16.70;;
1258;SDS011;619;51.472;6.628;2023-05-09T02:15:44;17.47;;;16.10;;
1258;SDS011;619;51.472;6.628;2023-05-09T02:18:11;18.63;;;16.60;;
1258;SDS011;619;51.472;6.628;2023-05-09T02:20:40;16.80;;;15.40;;
1258;SDS011;619;51.472;6.628;2023-05-09T02:23:08;16.23;;;14.87;;
1258;SDS011;619;51.472;6.628;2023-05-09T02:25:36;17.03;;;15.63;;
1258;SDS011;619;51.472;6.628;2023-05-09T02:28:03;16.63;;;15.27;;
1258;SDS011;619;51.472;6.628;2023-05-09T02:30:30;16.20;;;14.80;;
1258;SDS011;619;51.472;6.628;2023-05-09T02:33:00;16.37;;;15.07;;
1258;SDS011;619;51.472;6.628;2023-05-09T02:35:30;17.53;;;16.03;;
1258;SDS011;619;51.472;6.628;2023-05-09T02:37:58;22.83;;;19.60;;
1258;SDS011;619;51.472;6.628;2023-05-09T02:40:25;20.97;;;18.90;;
1258;SDS011;619;51.472;6.628;2023-05-09T02:42:54;23.53;;;21.03;;
1258;SDS011;619;51.472;6.628;2023-05-09T02:45:22;24.70;;;22.30;;
1258;SDS011;619;51.472;6.628;2023-05-09T02:47:50;30.63;;;23.37;;
1258;SDS011;619;51.472;6.628;2023-05-09T02:50:16;29.07;;;25.77;;
1258;SDS011;619;51.472;6.628;2023-05-09T02:52:44;33.43;;;29.40;;
1258;SDS011;619;51.472;6.628;2023-05-09T02:55:09;35.43;;;30.93;;
1258;SDS011;619;51.472;6.628;2023-05-09T02:57:35;42.23;;;33.10;;
1258;SDS011;619;51.472;6.628;2023-05-09T03:00:03;43.30;;;35.20;;
1258;SDS011;619;51.472;6.628;2023-05-09T03:02:33;41.17;;;36.40;;
1258;SDS011;619;51.472;6.628;2023-05-09T03:04:59;38.23;;;33.47;;
1258;SDS011;619;51.472;6.628;2023-05-09T03:07:28;48.00;;;40.20;;
1258;SDS011;619;51.472;6.628;2023-05-09T03:09:56;43.73;;;38.07;;
1258;SDS011;619;51.472;6.628;2023-05-09T03:12:24;44.97;;;38.20;;
1258;SDS011;619;51.472;6.628;2023-05-09T03:14:50;50.40;;;40.23;;
1258;SDS011;619;51.472;6.628;2023-05-09T03:17:18;44.63;;;39.10;;
1258;SDS011;619;51.472;6.628;2023-05-09T03:19:45;46.00;;;39.70;;
1258;SDS011;619;51.472;6.628;2023-05-09T03:22:14;50.90;;;41.13;;
1258;SDS011;619;51.472;6.628;2023-05-09T03:24:40;46.90;;;39.03;;
1258;SDS011;619;51.472;6.628;2023-05-09T03:27:06;50.93;;;41.93;;
1258;SDS011;619;51.472;6.628;2023-05-09T03:29:31;53.10;;;42.27;;
1258;SDS011;619;51.472;6.628;2023-05-09T03:31:59;50.03;;;41.70;;
1258;SDS011;619;51.472;6.628;2023-05-09T03:34:27;51.97;;;42.50;;
1258;SDS011;619;51.472;6.628;2023-05-09T03:36:55;51.67;;;43.13;;
1258;SDS011;619;51.472;6.628;2023-05-09T03:39:21;58.07;;;42.80;;
1258;SDS011;619;51.472;6.628;2023-05-09T03:41:49;50.30;;;41.30;;
1258;SDS011;619;51.472;6.628;2023-05-09T03:44:15;52.13;;;42.70;;
1258;SDS011;619;51.472;6.628;2023-05-09T03:46:43;51.90;;;42.40;;
1258;SDS011;619;51.472;6.628;2023-05-09T03:49:08;50.17;;;41.13;;
1258;SDS011;619;51.472;6.628;2023-05-09T03:51:36;53.53;;;43.10;;
1258;SDS011;619;51.472;6.628;2023-05-09T03:54:04;51.00;;;41.87;;
1258;SDS011;619;51.472;6.628;2023-05-09T03:56:30;56.83;;;43.60;;
1258;SDS011;619;51.472;6.628;2023-05-09T03:58:55;53.33;;;42.40;;
1258;SDS011;619;51.472;6.628;2023-05-09T04:01:21;56.73;;;43.67;;
1258;SDS011;619;51.472;6.628;2023-05-09T04:03:47;53.33;;;41.60;;
1258;SDS011;619;51.472;6.628;2023-05-09T04:06:12;55.03;;;43.93;;
1258;SDS011;619;51.472;6.628;2023-05-09T04:08:38;51.03;;;41.63;;
1258;SDS011;619;51.472;6.628;2023-05-09T04:11:03;53.67;;;44.20;;
1258;SDS011;619;51.472;6.628;2023-05-09T04:13:30;57.13;;;43.10;;
1258;SDS011;619;51.472;6.628;2023-05-09T04:16:00;49.27;;;40.57;;
1258;SDS011;619;51.472;6.628;2023-05-09T04:18:26;49.80;;;40.90;;
1258;SDS011;619;51.472;6.628;2023-05-09T04:20:54;52.87;;;42.13;;
1258;SDS011;619;51.472;6.628;2023-05-09T04:23:20;48.30;;;38.57;;
1258;SDS011;619;51.472;6.628;2023-05-09T04:25:46;50.80;;;43.40;;
1258;SDS011;619;51.472;6.628;2023-05-09T04:28:11;48.90;;;40.40;;
1258;SDS011;619;51.472;6.628;2023-05-09T04:30:37;52.40;;;40.60;;
1258;SDS011;619;51.472;6.628;2023-05-09T04:33:07;51.10;;;40.77;;
1258;SDS011;619;51.472;6.628;2023-05-09T04:35:33;52.10;;;41.30;;
1258;SDS011;619;51.472;6.628;2023-05-09T04:37:58;56.27;;;43.63;;
1258;SDS011;619;51.472;6.628;2023-05-09T04:40:24;50.90;;;42.23;;
1258;SDS011;619;51.472;6.628;2023-05-09T04:42:50;52.83;;;42.10;;
1258;SDS011;619;51.472;6.628;2023-05-09T04:45:18;48.93;;;40.83;;
1258;SDS011;619;51.472;6.628;2023-05-09T04:47:44;51.87;;;42.60;;
1258;SDS011;619;51.472;6.628;2023-05-09T04:50:12;48.73;;;40.27;;
1258;SDS011;619;51.472;6.628;2023-05-09T04:52:37;50.50;;;39.93;;
1258;SDS011;619;51.472;6.628;2023-05-09T04:55:03;55.80;;;44.30;;
1258;SDS011;619;51.472;6.628;2023-05-09T04:57:32;52.90;;;41.77;;
1258;SDS011;619;51.472;6.628;2023-05-09T04:59:58;50.87;;;41.90;;
1258;SDS011;619;51.472;6.628;2023-05-09T05:02:23;49.70;;;41.43;;
1258;SDS011;619;51.472;6.628;2023-05-09T05:04:51;56.10;;;43.67;;
1258;SDS011;619;51.472;6.628;2023-05-09T05:07:19;51.77;;;43.07;;
1258;SDS011;619;51.472;6.628;2023-05-09T05:09:45;57.07;;;43.53;;
1258;SDS011;619;51.472;6.628;2023-05-09T05:12:10;49.53;;;39.30;;
1258;SDS011;619;51.472;6.628;2023-05-09T05:14:41;51.57;;;41.50;;
1258;SDS011;619;51.472;6.628;2023-05-09T05:17:07;52.00;;;42.23;;
1258;SDS011;619;51.472;6.628;2023-05-09T05:19:35;56.03;;;41.73;;
1258;SDS011;619;51.472;6.628;2023-05-09T05:22:00;49.10;;;41.47;;
1258;SDS011;619;51.472;6.628;2023-05-09T05:24:30;50.07;;;40.80;;
1258;SDS011;619;51.472;6.628;2023-05-09T05:26:56;51.00;;;41.03;;
1258;SDS011;619;51.472;6.628;2023-05-09T05:29:24;51.37;;;39.47;;
1258;SDS011;619;51.472;6.628;2023-05-09T05:31:52;49.20;;;39.63;;
1258;SDS011;619;51.472;6.628;2023-05-09T05:34:20;42.03;;;35.63;;
1258;SDS011;619;51.472;6.628;2023-05-09T05:36:49;47.47;;;34.50;;
1258;SDS011;619;51.472;6.628;2023-05-09T05:39:15;42.27;;;34.90;;
1258;SDS011;619;51.472;6.628;2023-05-09T05:41:40;40.70;;;34.23;;
1258;SDS011;619;51.472;6.628;2023-05-09T05:44:08;37.87;;;32.97;;
1258;SDS011;619;51.472;6.628;2023-05-09T05:46:34;37.90;;;32.83;;
1258;SDS011;619;51.472;6.628;2023-05-09T05:49:02;40.47;;;33.77;;
1258;SDS011;619;51.472;6.628;2023-05-09T05:51:27;38.67;;;31.40;;
1258;SDS011;619;51.472;6.628;2023-05-09T05:53:53;39.67;;;33.07;;
1258;SDS011;619;51.472;6.628;2023-05-09T05:56:21;38.90;;;32.40;;
1258;SDS011;619;51.472;6.628;2023-05-09T05:58:50;36.23;;;30.50;;
1258;SDS011;619;51.472;6.628;2023-05-09T06:01:18;37.20;;;31.20;;
1258;SDS011;619;51.472;6.628;2023-05-09T06:03:45;33.30;;;29.10;;
1258;SDS011;619;51.472;6.628;2023-05-09T06:06:12;31.37;;;28.07;;
1258;SDS011;619;51.472;6.628;2023-05-09T06:08:37;32.90;;;28.80;;
1258;SDS011;619;51.472;6.628;2023-05-09T06:11:03;33.23;;;27.80;;
1258;SDS011;619;51.472;6.628;2023-05-09T06:13:29;31.50;;;26.97;;
1258;SDS011;619;51.472;6.628;2023-05-09T06:15:57;31.50;;;27.23;;
1258;SDS011;619;51.472;6.628;2023-05-09T06:18:23;30.60;;;27.30;;
1258;SDS011;619;51.472;6.628;2023-05-09T06:20:49;29.70;;;26.50;;
1258;SDS011;619;51.472;6.628;2023-05-09T06:23:14;30.00;;;26.10;;
1258;SDS011;619;51.472;6.628;2023-05-09T06:25:45;30.30;;;26.13;;
1258;SDS011;619;51.472;6.628;2023-05-09T06:28:11;28.67;;;25.57;;
1258;SDS011;619;51.472;6.628;2023-05-09T06:30:39;28.80;;;24.63;;
1258;SDS011;619;51.472;6.628;2023-05-09T06:33:05;33.73;;;27.00;;
1258;SDS011;619;51.472;6.628;2023-05-09T06:35:35;33.50;;;26.90;;
1258;SDS011;619;51.472;6.628;2023-05-09T06:38:01;32.83;;;25.17;;
1258;SDS011;619;51.472;6.628;2023-05-09T06:40:26;27.60;;;24.80;;
1258;SDS011;619;51.472;6.628;2023-05-09T06:42:55;30.27;;;27.10;;
1258;SDS011;619;51.472;6.628;2023-05-09T06:45:21;33.43;;;29.63;;
1258;SDS011;619;51.472;6.628;2023-05-09T06:47:46;38.63;;;28.70;;
1258;SDS011;619;51.472;6.628;2023-05-09T06:50:12;36.43;;;28.13;;
1258;SDS011;619;51.472;6.628;2023-05-09T06:52:37;34.20;;;29.97;;
1258;SDS011;619;51.472;6.628;2023-05-09T06:55:05;37.00;;;31.30;;
1258;SDS011;619;51.472;6.628;2023-05-09T06:57:32;42.50;;;31.20;;
1258;SDS011;619;51.472;6.628;2023-05-09T06:59:57;42.30;;;36.30;;
1258;SDS011;619;51.472;6.628;2023-05-09T07:02:23;42.80;;;33.60;;
1258;SDS011;619;51.472;6.628;2023-05-09T07:04:53;41.13;;;34.27;;
1258;SDS011;619;51.472;6.628;2023-05-09T07:07:19;47.40;;;38.83;;
1258;SDS011;619;51.472;6.628;2023-05-09T07:09:47;45.80;;;35.63;;
1258;SDS011;619;51.472;6.628;2023-05-09T07:12:12;46.90;;;36.23;;
1258;SDS011;619;51.472;6.628;2023-05-09T07:14:38;55.87;;;37.33;;
1258;SDS011;619;51.472;6.628;2023-05-09T07:17:05;48.93;;;35.50;;
1258;SDS011;619;51.472;6.628;2023-05-09T07:19:32;48.23;;;36.00;;
1258;SDS011;619;51.472;6.628;2023-05-09T07:21:58;41.03;;;34.17;;
1258;SDS011;619;51.472;6.628;2023-05-09T07:24:23;46.40;;;33.90;;
1258;SDS011;619;51.472;6.628;2023-05-09T07:26:49;38.37;;;33.23;;
1258;SDS011;619;51.472;6.628;2023-05-09T07:29:15;40.27;;;33.23;;
1258;SDS011;619;51.472;6.628;2023-05-09T07:31:44;37.70;;;31.20;;
1258;SDS011;619;51.472;6.628;2023-05-09T07:34:10;35.73;;;31.10;;
1258;SDS011;619;51.472;6.628;2023-05-09T07:36:36;32.30;;;28.90;;
1258;SDS011;619;51.472;6.628;2023-05-09T07:39:04;38.30;;;29.00;;
1258;SDS011;619;51.472;6.628;2023-05-09T07:41:32;29.13;;;26.40;;
1258;SDS011;619;51.472;6.628;2023-05-09T07:43:57;28.33;;;25.60;;
1258;SDS011;619;51.472;6.628;2023-05-09T07:46:23;27.40;;;24.80;;
1258;SDS011;619;51.472;6.628;2023-05-09T07:48:49;27.40;;;24.67;;
1258;SDS011;619;51.472;6.628;2023-05-09T07:51:16;25.53;;;23.23;;
1258;SDS011;619;51.472;6.628;2023-05-09T07:53:42;28.93;;;26.27;;
1258;SDS011;619;51.472;6.628;2023-05-09T07:56:08;27.37;;;24.77;;
1258;SDS011;619;51.472;6.628;2023-05-09T07:58:33;28.17;;;25.50;;
1258;SDS011;619;51.472;6.628;2023-05-09T08:01:03;26.73;;;24.33;;
1258;SDS011;619;51.472;6.628;2023-05-09T08:03:31;25.37;;;23.07;;
1258;SDS011;619;51.472;6.628;2023-05-09T08:05:57;25.73;;;23.37;;
1258;SDS011;619;51.472;6.628;2023-05-09T08:08:23;24.93;;;22.60;;
1258;SDS011;619;51.472;6.628;2023-05-09T08:10:54;28.27;;;25.40;;
1258;SDS011;619;51.472;6.628;2023-05-09T08:13:20;24.50;;;22.30;;
1258;SDS011;619;51.472;6.628;2023-05-09T08:15:48;22.90;;;20.83;;
1258;SDS011;619;51.472;6.628;2023-05-09T08:18:14;25.20;;;22.70;;
1258;SDS011;619;51.472;6.628;2023-05-09T08:20:44;25.03;;;22.63;;
1258;SDS011;619;51.472;6.628;2023-05-09T08:23:14;21.63;;;19.83;;
1258;SDS011;619;51.472;6.628;2023-05-09T08:25:39;20.40;;;18.70;;
1258;SDS011;619;51.472;6.628;2023-05-09T08:28:07;20.63;;;18.93;;
1258;SDS011;619;51.472;6.628;2023-05-09T08:30:35;18.80;;;17.00;;
1258;SDS011;619;51.472;6.628;2023-05-09T08:33:03;16.20;;;14.70;;
1258;SDS011;619;51.472;6.628;2023-05-09T08:35:34;14.43;;;13.20;;
1258;SDS011;619;51.472;6.628;2023-05-09T08:37:59;15.80;;;14.20;;
1258;SDS011;619;51.472;6.628;2023-05-09T08:40:25;16.40;;;14.70;;
1258;SDS011;619;51.472;6.628;2023-05-09T08:42:55;16.43;;;14.90;;
1258;SDS011;619;51.472;6.628;2023-05-09T08:45:24;14.17;;;12.87;;
1258;SDS011;619;51.472;6.628;2023-05-09T08:47:53;12.87;;;11.77;;
1258;SDS011;619;51.472;6.628;2023-05-09T08:50:19;13.10;;;11.90;;
1258;SDS011;619;51.472;6.628;2023-05-09T08:52:45;12.80;;;11.70;;
1258;SDS011;619;51.472;6.628;2023-05-09T08:55:13;13.67;;;12.47;;
1258;SDS011;619;51.472;6.628;2023-05-09T08:57:41;12.87;;;11.77;;
1258;SDS011;619;51.472;6.628;2023-05-09T09:00:10;12.97;;;11.67;;
1258;SDS011;619;51.472;6.628;2023-05-09T09:02:42;11.83;;;10.80;;
1258;SDS011;619;51.472;6.628;2023-05-09T09:05:08;12.07;;;10.97;;
1258;SDS011;619;51.472;6.628;2023-05-09T09:07:37;11.63;;;10.73;;
1258;SDS011;619;51.472;6.628;2023-05-09T09:10:04;12.20;;;11.10;;
1258;SDS011;619;51.472;6.628;2023-05-09T09:12:34;11.90;;;10.70;;
1258;SDS011;619;51.472;6.628;2023-05-09T09:15:05;10.50;;;9.43;;
1258;SDS011;619;51.472;6.628;2023-05-09T09:17:37;10.27;;;9.37;;
1258;SDS011;619;51.472;6.628;2023-05-09T09:20:07;11.63;;;10.60;;
1258;SDS011;619;51.472;6.628;2023-05-09T09:22:35;12.50;;;11.33;;
1258;SDS011;619;51.472;6.628;2023-05-09T09:25:05;11.97;;;10.77;;
1258;SDS011;619;51.472;6.628;2023-05-09T09:27:30;11.67;;;10.60;;
1258;SDS011;619;51.472;6.628;2023-05-09T09:30:06;13.10;;;11.17;;
1258;SDS011;619;51.472;6.628;2023-05-09T09:32:35;9.97;;;9.07;;
1258;SDS011;619;51.472;6.628;2023-05-09T09:35:07;9.63;;;8.60;;
1258;SDS011;619;51.472;6.628;2023-05-09T09:37:35;9.00;;;8.20;;
1258;SDS011;619;51.472;6.628;2023-05-09T09:40:05;8.67;;;7.10;;
1258;SDS011;619;51.472;6.628;2023-05-09T09:47:39;9.57;;;8.10;;
1258;SDS011;619;51.472;6.628;2023-05-09T09:52:58;7.00;;;6.30;;
1258;SDS011;619;51.472;6.628;2023-05-09T09:55:27;7.87;;;6.97;;
1258;SDS011;619;51.472;6.628;2023-05-09T09:57:55;6.70;;;6.00;;
1258;SDS011;619;51.472;6.628;2023-05-09T10:00:27;6.73;;;5.27;;
1258;SDS011;619;51.472;6.628;2023-05-09T10:02:58;6.90;;;5.57;;
1258;SDS011;619;51.472;6.628;2023-05-09T10:05:27;6.50;;;5.90;;
1258;SDS011;619;51.472;6.628;2023-05-09T10:08:02;8.67;;;5.80;;
1258;SDS011;619;51.472;6.628;2023-05-09T10:10:29;5.83;;;5.30;;
1258;SDS011;619;51.472;6.628;2023-05-09T10:12:57;5.60;;;5.07;;
1258;SDS011;619;51.472;6.628;2023-05-09T10:15:24;6.37;;;5.87;;
1258;SDS011;619;51.472;6.628;2023-05-09T10:17:56;6.00;;;5.50;;
1258;SDS011;619;51.472;6.628;2023-05-09T10:20:30;8.10;;;5.70;;
1258;SDS011;619;51.472;6.628;2023-05-09T10:23:00;7.50;;;5.03;;
1258;SDS011;619;51.472;6.628;2023-05-09T10:25:45;5.30;;;4.80;;
1258;SDS011;619;51.472;6.628;2023-05-09T10:28:21;6.30;;;4.53;;
1258;SDS011;619;51.472;6.628;2023-05-09T10:31:03;4.80;;;4.40;;
1258;SDS011;619;51.472;6.628;2023-05-09T10:33:48;6.47;;;4.60;;
1258;SDS011;619;51.472;6.628;2023-05-09T10:36:18;6.37;;;4.50;;
1258;SDS011;619;51.472;6.628;2023-05-09T10:38:48;5.70;;;5.20;;
1258;SDS011;619;51.472;6.628;2023-05-09T10:41:17;5.40;;;4.87;;
1258;SDS011;619;51.472;6.628;2023-05-09T10:43:47;6.97;;;4.27;;
1258;SDS011;619;51.472;6.628;2023-05-09T10:46:19;6.50;;;5.00;;
1258;SDS011;619;51.472;6.628;2023-05-09T10:48:50;5.70;;;4.70;;
1258;SDS011;619;51.472;6.628;2023-05-09T10:51:18;5.80;;;5.13;;
1258;SDS011;619;51.472;6.628;2023-05-09T10:53:45;5.37;;;4.87;;
1258;SDS011;619;51.472;6.628;2023-05-09T10:58:53;5.83;;;5.20;;
1258;SDS011;619;51.472;6.628;2023-05-09T11:01:34;6.53;;;5.07;;
1258;SDS011;619;51.472;6.628;2023-05-09T11:04:11;6.87;;;6.10;;
1258;SDS011;619;51.472;6.628;2023-05-09T11:12:14;9.40;;;8.67;;
1258;SDS011;619;51.472;6.628;2023-05-09T11:14:46;10.73;;;9.73;;
1258;SDS011;619;51.472;6.628;2023-05-09T11:24:48;9.47;;;8.67;;
1258;SDS011;619;51.472;6.628;2023-05-09T11:27:25;10.80;;;9.90;;
1258;SDS011;619;51.472;6.628;2023-05-09T11:29:57;10.63;;;8.60;;
1258;SDS011;619;51.472;6.628;2023-05-09T11:32:32;9.50;;;8.60;;
1258;SDS011;619;51.472;6.628;2023-05-09T11:35:11;10.23;;;9.27;;
1258;SDS011;619;51.472;6.628;2023-05-09T11:37:46;7.90;;;7.20;;
1258;SDS011;619;51.472;6.628;2023-05-09T11:40:17;9.30;;;8.47;;
1258;SDS011;619;51.472;6.628;2023-05-09T11:42:49;9.13;;;8.37;;
1258;SDS011;619;51.472;6.628;2023-05-09T11:45:18;9.50;;;8.50;;
1258;SDS011;619;51.472;6.628;2023-05-09T11:47:47;8.23;;;7.43;;
1258;SDS011;619;51.472;6.628;2023-05-09T11:50:19;8.60;;;7.80;;
1258;SDS011;619;51.472;6.628;2023-05-09T11:52:48;9.87;;;7.30;;
1258;SDS011;619;51.472;6.628;2023-05-09T11:55:16;8.47;;;7.77;;
1258;SDS011;619;51.472;6.628;2023-05-09T11:57:48;8.37;;;7.67;;
1258;SDS011;619;51.472;6.628;2023-05-09T12:00:20;8.33;;;7.50;;
1258;SDS011;619;51.472;6.628;2023-05-09T12:02:49;8.57;;;7.83;;
1258;SDS011;619;51.472;6.628;2023-05-09T12:05:19;7.03;;;5.87;;
1258;SDS011;619;51.472;6.628;2023-05-09T12:07:45;8.20;;;6.83;;
1258;SDS011;619;51.472;6.628;2023-05-09T12:10:14;7.93;;;6.53;;
1258;SDS011;619;51.472;6.628;2023-05-09T12:12:49;7.10;;;6.40;;
1258;SDS011;619;51.472;6.628;2023-05-09T12:15:19;6.83;;;6.13;;
1258;SDS011;619;51.472;6.628;2023-05-09T12:17:47;6.73;;;6.13;;
1258;SDS011;619;51.472;6.628;2023-05-09T12:20:47;8.93;;;8.23;;
1258;SDS011;619;51.472;6.628;2023-05-09T12:23:16;11.00;;;8.27;;
1258;SDS011;619;51.472;6.628;2023-05-09T12:25:46;9.50;;;7.70;;
1258;SDS011;619;51.472;6.628;2023-05-09T12:28:12;8.90;;;8.10;;
1258;SDS011;619;51.472;6.628;2023-05-09T12:30:43;13.80;;;9.70;;
1258;SDS011;619;51.472;6.628;2023-05-09T12:33:14;14.00;;;10.43;;
1258;SDS011;619;51.472;6.628;2023-05-09T12:35:46;10.87;;;9.70;;
1258;SDS011;619;51.472;6.628;2023-05-09T12:38:13;12.27;;;10.93;;
1258;SDS011;619;51.472;6.628;2023-05-09T12:40:46;11.90;;;10.70;;
1258;SDS011;619;51.472;6.628;2023-05-09T12:43:23;11.50;;;10.40;;
1258;SDS011;619;51.472;6.628;2023-05-09T12:45:51;12.50;;;11.40;;
1258;SDS011;619;51.472;6.628;2023-05-09T12:48:21;12.20;;;10.93;;
1258;SDS011;619;51.472;6.628;2023-05-09T12:50:47;12.50;;;11.30;;
1258;SDS011;619;51.472;6.628;2023-05-09T12:53:13;12.40;;;11.40;;
1258;SDS011;619;51.472;6.628;2023-05-09T12:55:54;11.10;;;10.07;;
1258;SDS011;619;51.472;6.628;2023-05-09T12:58:35;13.73;;;11.47;;
1258;SDS011;619;51.472;6.628;2023-05-09T13:01:03;11.20;;;10.10;;
1258;SDS011;619;51.472;6.628;2023-05-09T13:03:29;11.53;;;10.53;;
1258;SDS011;619;51.472;6.628;2023-05-09T13:06:02;10.70;;;9.70;;
1258;SDS011;619;51.472;6.628;2023-05-09T13:08:29;12.73;;;11.30;;
1258;SDS011;619;51.472;6.628;2023-05-09T13:11:00;13.13;;;11.93;;
1258;SDS011;619;51.472;6.628;2023-05-09T13:13:29;13.53;;;11.50;;
1258;SDS011;619;51.472;6.628;2023-05-09T13:15:55;11.33;;;10.43;;
1258;SDS011;619;51.472;6.628;2023-05-09T13:18:21;13.87;;;10.90;;
1258;SDS011;619;51.472;6.628;2023-05-09T13:20:49;12.80;;;11.70;;
1258;SDS011;619;51.472;6.628;2023-05-09T13:23:16;15.57;;;11.53;;
1258;SDS011;619;51.472;6.628;2023-05-09T13:25:41;16.30;;;14.80;;
1258;SDS011;619;51.472;6.628;2023-05-09T13:28:09;11.97;;;10.90;;
1258;SDS011;619;51.472;6.628;2023-05-09T13:30:40;11.83;;;10.80;;
1258;SDS011;619;51.472;6.628;2023-05-09T13:33:09;12.50;;;10.77;;
1258;SDS011;619;51.472;6.628;2023-05-09T13:35:40;11.33;;;10.27;;
1258;SDS011;619;51.472;6.628;2023-05-09T13:38:05;12.00;;;10.87;;
1258;SDS011;619;51.472;6.628;2023-05-09T13:40:31;11.87;;;10.57;;
1258;SDS011;619;51.472;6.628;2023-05-09T13:42:59;14.20;;;12.80;;
1258;SDS011;619;51.472;6.628;2023-05-09T13:45:26;12.50;;;11.27;;
1258;SDS011;619;51.472;6.628;2023-05-09T13:47:52;12.30;;;11.07;;
1258;SDS011;619;51.472;6.628;2023-05-09T13:50:18;11.93;;;10.87;;
1258;SDS011;619;51.472;6.628;2023-05-09T13:52:48;14.30;;;12.07;;
1258;SDS011;619;51.472;6.628;2023-05-09T13:55:16;10.60;;;9.67;;
1258;SDS011;619;51.472;6.628;2023-05-09T13:57:44;11.50;;;10.40;;
1258;SDS011;619;51.472;6.628;2023-05-09T14:00:10;12.23;;;11.07;;
1258;SDS011;619;51.472;6.628;2023-05-09T14:02:36;11.63;;;10.73;;
1258;SDS011;619;51.472;6.628;2023-05-09T14:05:04;11.33;;;10.20;;
1258;SDS011;619;51.472;6.628;2023-05-09T14:07:32;12.30;;;11.20;;
1258;SDS011;619;51.472;6.628;2023-05-09T14:09:58;12.60;;;11.30;;
1258;SDS011;619;51.472;6.628;2023-05-09T14:12:25;12.27;;;11.13;;
1258;SDS011;619;51.472;6.628;2023-05-09T14:14:53;11.40;;;10.27;;
1258;SDS011;619;51.472;6.628;2023-05-09T14:17:19;10.33;;;9.53;;
1258;SDS011;619;51.472;6.628;2023-05-09T14:19:44;10.53;;;9.63;;
1258;SDS011;619;51.472;6.628;2023-05-09T14:22:10;9.97;;;9.17;;
1258;SDS011;619;51.472;6.628;2023-05-09T14:24:35;7.03;;;6.53;;
1258;SDS011;619;51.472;6.628;2023-05-09T14:27:01;6.40;;;5.90;;
1258;SDS011;619;51.472;6.628;2023-05-09T14:29:27;7.20;;;5.30;;
1258;SDS011;619;51.472;6.628;2023-05-09T14:31:53;5.57;;;5.10;;
1258;SDS011;619;51.472;6.628;2023-05-09T14:34:19;7.47;;;5.50;;
1258;SDS011;619;51.472;6.628;2023-05-09T14:36:44;5.70;;;5.20;;
1258;SDS011;619;51.472;6.628;2023-05-09T14:39:10;5.00;;;4.60;;
1258;SDS011;619;51.472;6.628;2023-05-09T14:41:36;5.63;;;5.13;;
1258;SDS011;619;51.472;6.628;2023-05-09T14:44:06;5.90;;;5.40;;
1258;SDS011;619;51.472;6.628;2023-05-09T14:46:32;6.50;;;5.73;;
1258;SDS011;619;51.472;6.628;2023-05-09T14:48:57;5.43;;;5.03;;
1258;SDS011;619;51.472;6.628;2023-05-09T14:51:28;5.60;;;5.10;;
1258;SDS011;619;51.472;6.628;2023-05-09T14:53:55;7.00;;;5.90;;
1258;SDS011;619;51.472;6.628;2023-05-09T14:56:21;4.80;;;4.40;;
1258;SDS011;619;51.472;6.628;2023-05-09T14:58:47;4.60;;;4.20;;
1258;SDS011;619;51.472;6.628;2023-05-09T15:01:13;4.23;;;3.93;;
1258;SDS011;619;51.472;6.628;2023-05-09T15:03:41;7.13;;;4.33;;
1258;SDS011;619;51.472;6.628;2023-05-09T15:06:08;5.00;;;4.60;;
1258;SDS011;619;51.472;6.628;2023-05-09T15:08:34;5.07;;;4.67;;
1258;SDS011;619;51.472;6.628;2023-05-09T15:11:00;4.37;;;4.00;;
1258;SDS011;619;51.472;6.628;2023-05-09T15:13:31;4.20;;;3.90;;
1258;SDS011;619;51.472;6.628;2023-05-09T15:15:57;4.27;;;3.87;;
1258;SDS011;619;51.472;6.628;2023-05-09T15:18:23;4.20;;;3.80;;
1258;SDS011;619;51.472;6.628;2023-05-09T15:20:53;4.00;;;3.70;;
1258;SDS011;619;51.472;6.628;2023-05-09T15:23:19;5.90;;;3.80;;
1258;SDS011;619;51.472;6.628;2023-05-09T15:25:47;6.60;;;3.33;;
1258;SDS011;619;51.472;6.628;2023-05-09T15:28:15;4.77;;;4.17;;
1258;SDS011;619;51.472;6.628;2023-05-09T15:30:41;3.60;;;3.13;;
1258;SDS011;619;51.472;6.628;2023-05-09T15:33:07;4.20;;;3.37;;
1258;SDS011;619;51.472;6.628;2023-05-09T15:35:32;3.93;;;3.63;;
1258;SDS011;619;51.472;6.628;2023-05-09T15:37:58;4.93;;;3.73;;
1258;SDS011;619;51.472;6.628;2023-05-09T15:40:24;3.50;;;3.20;;
1258;SDS011;619;51.472;6.628;2023-05-09T15:42:52;3.43;;;3.13;;
1258;SDS011;619;51.472;6.628;2023-05-09T15:45:20;3.07;;;2.77;;